createdAt,value
2023-01-17T00:02:57.883Z,12.03
2023-01-17T00:06:19.541Z,13.63
2023-01-17T00:09:40.752Z,13.57
2023-01-17T00:12:48.743Z,15.57
2023-01-17T00:15:52.369Z,14.20
2023-01-17T00:19:13.364Z,14.70
2023-01-17T00:22:47.131Z,15.32
2023-01-17T00:26:04.775Z,11.45
2023-01-17T00:29:07.300Z,14.07
2023-01-17T00:32:09.939Z,8.20
2023-01-17T00:35:12.613Z,12.93
2023-01-17T00:38:17.604Z,8.90
2023-01-17T00:41:20.118Z,11.88
2023-01-17T00:44:41.135Z,14.03
2023-01-17T00:48:06.000Z,12.98
2023-01-17T00:51:27.355Z,9.68
2023-01-17T00:54:48.620Z,11.38
2023-01-17T00:58:09.721Z,7.43
2023-01-17T01:01:31.245Z,10.85
2023-01-17T01:04:52.800Z,8.75
2023-01-17T01:08:14.423Z,15.87
2023-01-17T01:11:39.197Z,13.25
2023-01-17T01:15:00.305Z,10.38
2023-01-17T01:18:30.469Z,12.50
2023-01-17T01:21:52.381Z,10.98
2023-01-17T01:25:13.821Z,11.73
2023-01-17T01:28:34.763Z,10.65
2023-01-17T01:31:56.818Z,11.77
2023-01-17T01:34:59.406Z,12.65
2023-01-17T01:38:03.318Z,12.27
2023-01-17T01:41:06.802Z,10.23
2023-01-17T01:44:43.647Z,11.20
2023-01-17T01:47:47.476Z,12.25
2023-01-17T01:50:51.132Z,11.63
2023-01-17T01:54:01.280Z,12.25
2023-01-17T01:57:07.735Z,7.03
2023-01-17T02:00:18.116Z,9.32
2023-01-17T02:03:29.556Z,6.25
2023-01-17T02:06:39.042Z,10.00
2023-01-17T02:09:42.032Z,11.82
2023-01-17T02:12:45.949Z,9.37
2023-01-17T02:16:13.807Z,7.88
2023-01-17T02:19:45.335Z,10.35
2023-01-17T02:23:11.882Z,8.73
2023-01-17T02:26:42.542Z,10.20
2023-01-17T02:30:09.380Z,9.63
2023-01-17T02:33:39.261Z,10.68
2023-01-17T02:36:52.786Z,10.85
2023-01-17T02:40:02.863Z,8.02
2023-01-17T02:43:11.844Z,9.88
2023-01-17T02:46:14.500Z,12.53
2023-01-17T02:49:19.523Z,9.98
2023-01-17T02:52:51.947Z,10.82
2023-01-17T02:56:06.116Z,12.20
2023-01-17T02:59:08.976Z,9.60
2023-01-17T03:02:53.066Z,9.82
2023-01-17T03:06:02.580Z,9.60
2023-01-17T03:09:06.308Z,11.43
2023-01-17T03:12:09.864Z,11.82
2023-01-17T03:15:14.167Z,11.75
2023-01-17T03:18:17.420Z,10.40
2023-01-17T03:21:21.112Z,12.02
2023-01-17T03:24:24.051Z,10.88
2023-01-17T03:27:26.546Z,10.83
2023-01-17T03:30:29.748Z,10.75
2023-01-17T03:33:32.309Z,10.65
2023-01-17T03:36:35.114Z,9.52
2023-01-17T03:39:37.789Z,10.27
2023-01-17T03:42:40.543Z,11.20
2023-01-17T03:45:43.384Z,11.15
2023-01-17T03:48:46.424Z,7.13
2023-01-17T03:51:49.714Z,11.98
2023-01-17T03:54:52.346Z,10.57
2023-01-17T03:57:54.714Z,12.47
2023-01-17T04:00:57.821Z,10.77
2023-01-17T04:04:01.011Z,7.88
2023-01-17T04:07:03.945Z,12.57
2023-01-17T04:10:07.167Z,10.90
2023-01-17T04:13:09.917Z,11.70
2023-01-17T04:16:15.691Z,12.23
2023-01-17T04:19:18.992Z,13.80
2023-01-17T04:22:21.593Z,14.95
2023-01-17T04:25:25.914Z,10.23
2023-01-17T04:28:28.299Z,10.00
2023-01-17T04:31:31.401Z,9.63
2023-01-17T04:34:33.955Z,10.57
2023-01-17T04:37:37.244Z,11.63
2023-01-17T04:40:39.816Z,10.60
2023-01-17T04:43:42.452Z,7.40
2023-01-17T04:46:45.089Z,11.77
2023-01-17T04:49:48.018Z,12.60
2023-01-17T04:52:50.539Z,12.20
2023-01-17T04:55:53.730Z,11.43
2023-01-17T04:58:59.184Z,12.37
2023-01-17T05:02:01.983Z,11.95
2023-01-17T05:05:04.957Z,8.95
2023-01-17T05:08:07.926Z,11.45
2023-01-17T05:11:10.699Z,9.30
2023-01-17T05:14:13.658Z,8.05
2023-01-17T05:17:16.391Z,8.02
2023-01-17T05:20:20.070Z,12.80
2023-01-17T05:23:22.933Z,9.98
2023-01-17T05:26:25.675Z,7.38
2023-01-17T05:29:28.881Z,6.13
2023-01-17T05:32:31.914Z,5.80
2023-01-17T05:35:34.286Z,7.68
2023-01-17T05:38:37.088Z,11.23
2023-01-17T05:41:39.848Z,10.98
2023-01-17T05:44:42.786Z,8.20
2023-01-17T05:47:52.868Z,7.30
2023-01-17T05:50:55.584Z,8.87
2023-01-17T05:53:58.062Z,11.02
2023-01-17T05:57:00.966Z,9.50
2023-01-17T06:00:03.971Z,10.00
2023-01-17T06:03:07.409Z,7.72
2023-01-17T06:06:09.812Z,10.70
2023-01-17T06:09:12.614Z,8.63
2023-01-17T06:12:15.644Z,4.18
2023-01-17T06:15:18.861Z,4.32
2023-01-17T06:18:21.194Z,3.38
2023-01-17T06:21:23.924Z,2.77
2023-01-17T06:24:27.271Z,5.63
2023-01-17T06:27:29.963Z,4.85
2023-01-17T06:30:32.737Z,4.23
2023-01-17T06:33:35.563Z,3.90
2023-01-17T06:36:38.016Z,3.00
2023-01-17T06:39:40.677Z,2.60
2023-01-17T06:42:43.716Z,3.53
2023-01-17T06:45:46.321Z,4.53
2023-01-17T06:48:49.894Z,5.07
2023-01-17T06:51:52.517Z,4.20
2023-01-17T06:54:54.916Z,4.60
2023-01-17T06:57:59.572Z,4.18
2023-01-17T07:01:10.556Z,3.00
2023-01-17T07:04:14.457Z,3.10
2023-01-17T07:07:19.462Z,4.03
2023-01-17T07:10:24.106Z,2.60
2023-01-17T07:13:28.818Z,2.85
2023-01-17T07:16:31.934Z,3.13
2023-01-17T07:19:34.461Z,3.35
2023-01-17T07:22:37.838Z,3.93
2023-01-17T07:25:40.547Z,4.47
2023-01-17T07:28:43.214Z,3.20
2023-01-17T07:31:45.770Z,3.07
2023-01-17T07:34:48.435Z,2.20
2023-01-17T07:37:51.592Z,3.38
2023-01-17T07:40:58.919Z,4.25
2023-01-17T07:44:01.964Z,3.25
2023-01-17T07:47:04.665Z,3.92
2023-01-17T07:50:09.177Z,3.95
2023-01-17T07:53:11.983Z,2.47
2023-01-17T07:56:14.502Z,4.30
2023-01-17T07:59:18.623Z,4.20
2023-01-17T08:02:24.410Z,4.43
2023-01-17T08:05:30.888Z,4.50
2023-01-17T08:08:33.920Z,4.22
2023-01-17T08:11:36.552Z,4.53
2023-01-17T08:14:39.064Z,3.78
2023-01-17T08:17:54.537Z,3.50
2023-01-17T08:20:56.995Z,3.63
2023-01-17T08:23:59.423Z,4.83
2023-01-17T08:27:01.865Z,4.38
2023-01-17T08:30:05.865Z,4.50
2023-01-17T08:33:08.414Z,4.27
2023-01-17T08:36:11.018Z,4.72
2023-01-17T08:39:14.689Z,3.47
2023-01-17T08:42:17.229Z,3.97
2023-01-17T08:45:19.856Z,5.25
2023-01-17T08:48:23.662Z,3.05
2023-01-17T08:51:28.953Z,4.47
2023-01-17T08:54:35.660Z,6.80
2023-01-17T08:57:38.420Z,5.82
2023-01-17T09:00:41.327Z,5.65
2023-01-17T09:03:45.765Z,5.57
2023-01-17T09:06:48.872Z,4.35
2023-01-17T09:09:52.851Z,5.55
2023-01-17T09:12:55.697Z,6.20
2023-01-17T09:15:59.373Z,4.60
2023-01-17T09:19:02.002Z,5.60
2023-01-17T09:22:05.609Z,6.70
2023-01-17T09:25:08.816Z,7.27
2023-01-17T09:28:11.543Z,7.20
2023-01-17T09:31:16.589Z,7.97
2023-01-17T09:34:20.014Z,7.00
2023-01-17T09:37:22.642Z,6.13
2023-01-17T09:40:25.745Z,5.43
2023-01-17T09:43:47.505Z,6.15
2023-01-17T09:46:54.531Z,5.70
2023-01-17T09:50:27.233Z,7.40
2023-01-17T09:53:34.238Z,4.93
2023-01-17T09:56:43.828Z,4.20
2023-01-17T10:00:16.360Z,4.93
2023-01-17T10:03:30.976Z,5.00
2023-01-17T10:07:11.928Z,3.53
2023-01-17T10:10:26.755Z,4.55
2023-01-17T10:13:54.243Z,4.47
2023-01-17T10:17:00.037Z,4.28
2023-01-17T10:20:30.770Z,3.42
2023-01-17T10:24:03.838Z,3.55
2023-01-17T10:27:25.085Z,2.63
2023-01-17T10:30:51.940Z,3.00
2023-01-17T10:33:55.652Z,2.50
2023-01-17T10:37:23.048Z,2.10
2023-01-17T10:40:55.091Z,2.57
2023-01-17T10:44:45.672Z,1.92
2023-01-17T10:47:59.608Z,1.40
2023-01-17T10:51:11.428Z,1.65
2023-01-17T10:54:43.250Z,1.60
2023-01-17T10:57:48.878Z,2.10
2023-01-17T11:00:59.447Z,1.60
2023-01-17T11:04:02.576Z,1.50
2023-01-17T11:07:16.336Z,1.80
2023-01-17T11:10:41.854Z,1.40
2023-01-17T11:13:47.869Z,2.10
2023-01-17T11:17:04.758Z,1.63
2023-01-17T11:20:43.154Z,2.58
2023-01-17T11:23:49.049Z,1.63
2023-01-17T11:26:51.705Z,1.48
2023-01-17T11:30:20.373Z,2.50
2023-01-17T11:33:48.314Z,2.80
2023-01-17T11:37:17.275Z,2.03
2023-01-17T11:40:23.968Z,1.98
2023-01-17T11:43:27.675Z,2.35
2023-01-17T11:46:30.468Z,1.10
2023-01-17T11:49:32.992Z,0.85
2023-01-17T11:52:39.307Z,1.70
2023-01-17T11:56:12.415Z,1.08
2023-01-17T11:59:21.266Z,1.77
2023-01-17T12:02:48.309Z,1.10
2023-01-17T12:06:01.852Z,1.58
2023-01-17T12:09:34.937Z,0.90
2023-01-17T12:13:11.267Z,1.17
2023-01-17T12:16:30.005Z,2.05
2023-01-17T12:19:51.352Z,1.37
2023-01-17T12:23:16.240Z,1.73
2023-01-17T12:26:28.822Z,2.03
2023-01-17T12:29:49.951Z,1.98
2023-01-17T12:33:10.736Z,2.08
2023-01-17T12:36:22.525Z,1.77
2023-01-17T12:39:35.725Z,2.20
2023-01-17T12:42:43.252Z,1.67
2023-01-17T12:45:49.472Z,1.40
2023-01-17T12:48:58.407Z,1.40
2023-01-17T12:52:48.811Z,1.50
2023-01-17T12:56:17.335Z,2.42
2023-01-17T12:59:39.287Z,1.30
2023-01-17T13:02:54.708Z,1.92
2023-01-17T13:05:58.587Z,0.95
2023-01-17T13:09:03.890Z,1.13
2023-01-17T13:12:12.643Z,1.45
2023-01-17T13:15:27.254Z,1.17
2023-01-17T13:18:30.056Z,1.67
2023-01-17T13:21:34.634Z,1.65
2023-01-17T13:25:23.346Z,1.03
2023-01-17T13:28:35.503Z,1.52
2023-01-17T13:31:50.837Z,1.00
2023-01-17T13:35:01.753Z,1.65
2023-01-17T13:38:23.123Z,1.27
2023-01-17T13:41:34.625Z,2.55
2023-01-17T13:44:37.579Z,1.05
2023-01-17T13:47:41.557Z,0.90
2023-01-17T13:50:58.456Z,1.55
2023-01-17T13:54:01.130Z,1.30
2023-01-17T13:57:30.428Z,2.13
2023-01-17T14:00:36.103Z,1.73
2023-01-17T14:03:46.266Z,1.52
2023-01-17T14:06:53.085Z,1.60
2023-01-17T14:09:55.569Z,2.03
2023-01-17T14:12:59.100Z,1.30
2023-01-17T14:16:05.446Z,3.05
2023-01-17T14:19:26.118Z,2.53
2023-01-17T14:22:32.044Z,2.15
2023-01-17T14:25:40.582Z,2.13
2023-01-17T14:28:43.053Z,3.07
2023-01-17T14:31:45.980Z,3.20
2023-01-17T14:34:57.257Z,3.03
2023-01-17T14:38:05.404Z,3.42
2023-01-17T14:41:13.361Z,4.50
2023-01-17T14:44:16.907Z,10.73
2023-01-17T14:47:20.223Z,5.95
2023-01-17T14:50:26.736Z,6.70
2023-01-17T14:53:31.560Z,8.80
2023-01-17T14:56:34.209Z,8.77
2023-01-17T14:59:36.787Z,8.27
2023-01-17T15:02:43.996Z,7.35
2023-01-17T15:05:51.437Z,9.55
2023-01-17T15:08:54.600Z,8.40
2023-01-17T15:11:58.183Z,7.80
2023-01-17T15:15:01.701Z,6.22
2023-01-17T15:18:14.792Z,7.15
2023-01-17T15:21:21.141Z,8.60
2023-01-17T15:24:27.710Z,10.23
2023-01-17T15:27:30.560Z,18.27
2023-01-17T15:30:33.183Z,26.20
2023-01-17T15:33:38.936Z,38.70
2023-01-17T15:36:41.558Z,19.83
2023-01-17T15:39:44.144Z,16.75
2023-01-17T15:42:51.214Z,16.48
2023-01-17T15:45:58.514Z,13.43
2023-01-17T15:49:31.227Z,42.55
2023-01-17T15:52:33.806Z,36.00
2023-01-17T15:55:40.159Z,23.33
2023-01-17T15:58:42.684Z,15.60
2023-01-17T16:01:55.726Z,12.47
2023-01-17T16:04:59.915Z,7.13
2023-01-17T16:08:06.297Z,7.15
2023-01-17T16:11:11.775Z,9.77
2023-01-17T16:14:14.309Z,9.80
2023-01-17T16:17:17.881Z,9.70
2023-01-17T16:20:23.356Z,15.85
2023-01-17T16:23:26.583Z,24.17
2023-01-17T16:26:29.534Z,25.80
2023-01-17T16:29:32.021Z,25.10
2023-01-17T16:32:34.858Z,28.40
2023-01-17T16:35:37.716Z,15.27
2023-01-17T16:38:40.549Z,9.32
2023-01-17T16:41:43.350Z,7.40
2023-01-17T16:44:46.159Z,9.23
2023-01-17T16:51:10.564Z,11.48
2023-01-17T16:54:13.044Z,11.83
2023-01-17T16:57:16.003Z,9.48
2023-01-17T17:00:18.930Z,6.97
2023-01-17T17:03:21.846Z,9.47
2023-01-17T17:06:24.489Z,8.02
2023-01-17T17:09:26.980Z,6.70
2023-01-17T17:12:29.800Z,7.00
2023-01-17T17:15:32.432Z,23.85
2023-01-17T17:18:36.761Z,12.18
2023-01-17T17:21:39.925Z,11.00
2023-01-17T17:24:42.348Z,9.03
2023-01-17T17:27:45.260Z,9.02
2023-01-17T17:30:47.794Z,8.70
2023-01-17T17:33:50.660Z,14.33
2023-01-17T17:36:53.422Z,14.57
2023-01-17T17:39:57.869Z,12.45
2023-01-17T17:43:00.636Z,12.55
2023-01-17T17:46:03.267Z,13.73
2023-01-17T17:49:06.841Z,13.40
2023-01-17T17:52:10.333Z,12.95
2023-01-17T17:55:13.239Z,10.33
2023-01-17T17:58:16.038Z,11.05
2023-01-17T18:01:19.306Z,10.80
2023-01-17T18:04:22.371Z,11.23
2023-01-17T18:07:25.232Z,11.13
2023-01-17T18:10:28.012Z,6.45
2023-01-17T18:13:32.828Z,6.53
2023-01-17T18:16:39.445Z,6.88
2023-01-17T18:19:42.627Z,7.18
2023-01-17T18:22:45.772Z,7.43
2023-01-17T18:25:48.501Z,7.27
2023-01-17T18:28:56.820Z,7.15
2023-01-17T18:31:59.390Z,6.78
2023-01-17T18:35:04.117Z,5.37
2023-01-17T18:38:06.714Z,5.75
2023-01-17T18:41:15.797Z,5.97
2023-01-17T18:44:22.300Z,5.53
2023-01-17T18:47:25.513Z,6.32
2023-01-17T18:50:28.657Z,5.30
2023-01-17T18:53:33.489Z,5.07
2023-01-17T18:56:36.370Z,4.20
2023-01-17T18:59:39.868Z,4.90
2023-01-17T19:02:42.853Z,5.28
2023-01-17T19:05:47.050Z,5.30
2023-01-17T19:08:51.826Z,6.05
2023-01-17T19:11:54.725Z,5.55
2023-01-17T19:14:57.750Z,5.15
2023-01-17T19:18:00.603Z,5.25
2023-01-17T19:21:12.740Z,5.55
2023-01-17T19:24:15.781Z,5.00
2023-01-17T19:27:18.867Z,5.13
2023-01-17T19:30:22.526Z,5.47
2023-01-17T19:33:25.268Z,4.50
2023-01-17T19:36:33.965Z,5.17
2023-01-17T19:39:36.977Z,6.07
2023-01-17T19:42:40.770Z,7.40
2023-01-17T19:45:43.289Z,6.90
2023-01-17T19:48:46.252Z,6.65
2023-01-17T19:51:50.173Z,7.32
2023-01-17T19:54:53.083Z,6.50
2023-01-17T19:57:56.182Z,7.43
2023-01-17T20:01:17.013Z,7.72
2023-01-17T20:04:19.793Z,7.88
2023-01-17T20:07:23.064Z,7.20
2023-01-17T20:10:26.236Z,8.25
2023-01-17T20:13:29.393Z,8.43
2023-01-17T20:16:34.953Z,8.48
2023-01-17T20:19:37.497Z,8.32
2023-01-17T20:22:44.341Z,8.75
2023-01-17T20:25:59.143Z,7.97
2023-01-17T20:29:04.678Z,7.27
2023-01-17T20:32:08.192Z,8.43
2023-01-17T20:35:10.851Z,9.10
2023-01-17T20:38:21.800Z,8.17
2023-01-17T20:41:28.840Z,7.68
2023-01-17T20:44:32.823Z,7.85
2023-01-17T20:47:35.513Z,8.15
2023-01-17T20:50:38.330Z,8.68
2023-01-17T20:53:42.394Z,9.05
2023-01-17T20:56:47.560Z,8.27
2023-01-17T20:59:50.115Z,7.93
2023-01-17T21:02:53.483Z,8.23
2023-01-17T21:06:07.734Z,9.00
2023-01-17T21:09:15.315Z,9.17
2023-01-17T21:12:17.993Z,8.93
2023-01-17T21:15:20.736Z,9.70
2023-01-17T21:18:26.648Z,7.43
2023-01-17T21:21:29.563Z,8.75
2023-01-17T21:24:32.199Z,8.13
2023-01-17T21:27:35.636Z,7.63
2023-01-17T21:30:38.119Z,7.03
2023-01-17T21:33:40.765Z,7.30
2023-01-17T21:36:43.454Z,6.82
2023-01-17T21:39:51.559Z,8.53
2023-01-17T21:42:54.128Z,5.13
2023-01-17T21:45:57.072Z,5.60
2023-01-17T21:49:00.313Z,8.52
2023-01-17T21:52:03.158Z,6.53
2023-01-17T21:55:24.611Z,7.72
2023-01-17T21:58:45.799Z,5.60
2023-01-17T22:01:49.115Z,8.53
2023-01-17T22:04:51.739Z,8.15
2023-01-17T22:08:12.333Z,7.85
2023-01-17T22:11:17.343Z,4.13
2023-01-17T22:14:20.926Z,5.95
2023-01-17T22:17:23.544Z,7.00
2023-01-17T22:20:26.125Z,8.43
2023-01-17T22:23:28.635Z,8.15
2023-01-17T22:26:31.864Z,7.47
2023-01-17T22:29:36.546Z,7.40
2023-01-17T22:32:39.736Z,7.37
2023-01-17T22:35:42.703Z,5.93
2023-01-17T22:38:45.397Z,6.47
2023-01-17T22:41:48.414Z,5.93
2023-01-17T22:44:51.172Z,5.75
2023-01-17T22:47:53.932Z,7.38
2023-01-17T22:50:58.389Z,8.45
2023-01-17T22:54:01.574Z,4.75
2023-01-17T22:57:04.164Z,6.53
2023-01-17T23:00:14.692Z,3.20
2023-01-17T23:03:17.405Z,3.87
2023-01-17T23:06:28.429Z,3.22
2023-01-17T23:09:30.897Z,4.68
2023-01-17T23:12:34.130Z,3.30
2023-01-17T23:15:58.273Z,2.92
2023-01-17T23:19:19.212Z,4.22
2023-01-17T23:22:24.207Z,3.17
2023-01-17T23:25:26.900Z,4.22
2023-01-17T23:28:29.599Z,4.65
2023-01-17T23:31:32.609Z,4.30
2023-01-17T23:34:35.062Z,5.70
2023-01-17T23:37:56.696Z,5.40
2023-01-17T23:41:19.833Z,1.75
2023-01-17T23:44:23.972Z,2.90
2023-01-17T23:47:26.734Z,3.03
2023-01-17T23:50:29.366Z,2.60
2023-01-17T23:53:31.993Z,2.90
2023-01-17T23:56:34.689Z,3.72
2023-01-17T23:59:37.442Z,3.60
